Time;durP1;ratioP1;P1;durP2;ratioP2;P2;SDS_P1;SDS_P2;PMS_P1;PMS_P2;Temp;Humidity;BMP_temperature;BMP_pressure;BME280_temperature;BME280_humidity;BME280_pressure;Samples;Min_cycle;Max_cycle;Signal;HPM_P1;HPM_P2
2023/03/31 00:00:11;;;;;;;5.63;2.13;;;21.90;42.00;;;;;;4992705;28;20034;-49
2023/03/31 00:02:41;;;;;;;4.68;1.85;;;21.90;42.00;;;;;;4993640;28;20030;-55
2023/03/31 00:05:08;;;;;;;4.75;2.10;;;21.90;42.00;;;;;;4991390;28;20026;-52
2023/03/31 00:07:36;;;;;;;4.93;1.83;;;21.90;42.00;;;;;;4991115;28;20121;-54
2023/03/31 00:10:06;;;;;;;3.88;1.83;;;21.90;42.10;;;;;;4993045;28;20465;-54
2023/03/31 00:12:32;;;;;;;3.88;1.95;;;21.90;42.10;;;;;;4990862;28;20112;-52
2023/03/31 00:14:58;;;;;;;4.05;1.85;;;21.90;42.10;;;;;;4993491;28;20022;-54
2023/03/31 00:17:24;;;;;;;5.40;2.10;;;21.90;42.20;;;;;;4992154;28;20034;-54
2023/03/31 00:19:50;;;;;;;3.85;1.90;;;21.90;42.20;;;;;;4993087;28;20489;-54
2023/03/31 00:22:21;;;;;;;4.15;2.10;;;21.80;42.20;;;;;;4993262;28;20054;-55
2023/03/31 00:24:47;;;;;;;4.07;1.48;;;21.80;42.10;;;;;;4993138;28;20414;-56
2023/03/31 00:27:13;;;;;;;3.70;1.98;;;21.80;42.20;;;;;;4993505;28;20390;-53
2023/03/31 00:29:40;;;;;;;3.13;1.50;;;21.90;42.20;;;;;;4991885;28;20041;-54
2023/03/31 00:32:07;;;;;;;3.65;1.60;;;21.90;42.20;;;;;;4992978;28;20355;-52
2023/03/31 00:34:33;;;;;;;3.70;1.98;;;21.80;42.80;;;;;;4993929;28;20109;-54
2023/03/31 00:37:02;;;;;;;4.40;1.95;;;21.80;42.20;;;;;;4992354;28;20443;-54
2023/03/31 00:39:33;;;;;;;4.50;1.70;;;21.80;42.30;;;;;;4991564;28;20042;-52
2023/03/31 00:42:03;;;;;;;4.03;1.63;;;21.80;42.20;;;;;;4990507;28;20030;-53
2023/03/31 00:44:33;;;;;;;4.20;1.90;;;21.80;42.20;;;;;;4993506;28;20446;-55
2023/03/31 00:47:19;;;;;;;3.83;1.90;;;21.80;42.30;;;;;;4991311;28;20073;-53
2023/03/31 00:49:50;;;;;;;4.25;1.70;;;21.80;42.30;;;;;;4990937;28;20394;-54
2023/03/31 00:52:31;;;;;;;4.57;1.77;;;21.70;42.30;;;;;;4992508;28;20034;-55
2023/03/31 00:55:11;;;;;;;3.83;1.60;;;21.70;42.30;;;;;;4983508;28;20537;-52
2023/03/31 00:57:40;;;;;;;3.85;1.65;;;21.80;42.40;;;;;;4992529;28;20454;-52
2023/03/31 01:00:17;;;;;;;3.25;1.65;;;21.70;42.40;;;;;;4990813;28;20030;-56
2023/03/31 01:02:51;;;;;;;4.38;1.50;;;21.70;42.40;;;;;;4993074;28;20037;-53
2023/03/31 01:05:28;;;;;;;3.33;1.67;;;21.70;42.50;;;;;;4992180;28;20065;-53
2023/03/31 01:07:56;;;;;;;3.45;1.42;;;21.70;42.50;;;;;;4990214;28;20114;-50
2023/03/31 01:10:22;;;;;;;3.20;1.30;;;21.70;42.60;;;;;;4990945;28;20035;-52
2023/03/31 01:12:53;;;;;;;3.05;1.50;;;21.70;42.60;;;;;;4992478;28;20327;-55
2023/03/31 01:15:19;;;;;;;3.38;1.48;;;21.70;42.70;;;;;;4990843;28;20426;-55
2023/03/31 01:17:48;;;;;;;2.67;1.25;;;21.70;42.70;;;;;;4991530;28;20117;-52
2023/03/31 01:20:35;;;;;;;2.45;1.27;;;21.70;42.80;;;;;;4992264;28;20418;-51
2023/03/31 01:23:26;;;;;;;3.30;1.40;;;21.70;42.80;;;;;;4993413;28;20163;-55
2023/03/31 01:26:11;;;;;;;3.15;1.27;;;21.70;42.90;;;;;;4993027;28;20050;-51
2023/03/31 01:28:56;;;;;;;2.72;1.25;;;21.60;42.90;;;;;;4992145;28;20065;-51
2023/03/31 01:31:21;;;;;;;2.40;1.10;;;21.60;42.90;;;;;;4986837;28;20054;-52
2023/03/31 01:34:13;;;;;;;3.35;1.30;;;21.60;43.00;;;;;;4996170;28;20026;-55
2023/03/31 01:37:07;;;;;;;1.95;0.98;;;21.60;43.10;;;;;;4983662;28;20038;-52
2023/03/31 01:39:42;;;;;;;2.57;1.00;;;21.60;43.10;;;;;;4995724;28;20038;-52
2023/03/31 01:42:20;;;;;;;2.63;1.33;;;21.60;43.10;;;;;;4993656;28;20026;-52
2023/03/31 01:44:56;;;;;;;1.88;0.95;;;21.60;43.20;;;;;;4994900;28;20030;-48
2023/03/31 01:47:43;;;;;;;2.72;1.30;;;21.60;43.20;;;;;;4993811;28;20030;-54
2023/03/31 01:50:23;;;;;;;3.40;1.42;;;21.60;43.20;;;;;;4994209;28;20029;-56
2023/03/31 01:53:30;;;;;;;2.75;1.05;;;21.60;43.20;;;;;;4991139;28;20034;-54
2023/03/31 01:56:15;;;;;;;1.67;0.90;;;21.50;43.20;;;;;;4992850;28;20026;-52
2023/03/31 01:59:07;;;;;;;2.35;1.05;;;21.50;43.30;;;;;;4991862;28;20088;-54
2023/03/31 02:01:43;;;;;;;3.15;1.10;;;21.50;43.30;;;;;;4994989;28;20454;-56
2023/03/31 02:04:38;;;;;;;3.15;1.13;;;21.50;43.30;;;;;;4995167;28;20160;-52
2023/03/31 02:07:08;;;;;;;;;;;21.50;43.40;;;;;;4992074;28;20050;-51
2023/03/31 02:09:43;;;;;;;2.10;1.13;;;21.50;43.40;;;;;;4999053;28;19964;-55
2023/03/31 02:12:10;;;;;;;1.88;0.85;;;21.50;43.40;;;;;;4995935;28;20510;-53
2023/03/31 02:14:42;;;;;;;2.53;0.95;;;21.50;43.40;;;;;;4994753;28;20042;-53
2023/03/31 02:17:14;;;;;;;3.22;1.33;;;21.50;43.50;;;;;;4991967;28;20026;-52
2023/03/31 02:19:42;;;;;;;3.35;1.05;;;21.50;43.50;;;;;;4993340;28;20070;-52
2023/03/31 02:22:09;;;;;;;3.47;1.10;;;21.50;43.60;;;;;;4995350;28;20041;-54
2023/03/31 02:24:37;;;;;;;2.13;1.20;;;21.50;43.70;;;;;;4995541;28;20031;-53
2023/03/31 02:27:23;;;;;;;2.58;1.17;;;21.50;43.70;;;;;;4995591;28;20038;-49
2023/03/31 02:29:50;;;;;;;2.10;0.90;;;21.40;43.70;;;;;;4993321;28;20037;-52
2023/03/31 02:32:37;;;;;;;3.55;0.90;;;21.50;43.70;;;;;;4994371;28;20022;-52
2023/03/31 02:35:05;;;;;;;3.75;1.13;;;21.50;43.70;;;;;;4991824;28;20038;-49
2023/03/31 02:37:32;;;;;;;1.52;0.82;;;21.50;43.80;;;;;;4992740;28;20146;-51
2023/03/31 02:40:01;;;;;;;2.60;1.10;;;21.40;43.80;;;;;;4994939;28;20042;-51
2023/03/31 02:42:29;;;;;;;3.22;1.15;;;21.50;43.80;;;;;;4992414;28;20070;-52
2023/03/31 02:45:02;;;;;;;2.28;0.85;;;21.40;43.80;;;;;;4994960;28;20035;-55
2023/03/31 02:47:28;;;;;;;3.13;1.00;;;21.40;43.80;;;;;;4985543;28;20026;-53
2023/03/31 02:49:58;;;;;;;2.33;1.02;;;21.40;43.80;;;;;;4992604;28;20461;-52
2023/03/31 02:52:50;;;;;;;3.53;1.10;;;21.40;43.80;;;;;;4995276;28;20042;-54
2023/03/31 02:55:31;;;;;;;3.17;1.10;;;21.40;43.90;;;;;;4992419;28;20424;-52
2023/03/31 02:58:17;;;;;;;2.85;1.02;;;21.40;43.90;;;;;;4989106;28;20038;-50
2023/03/31 03:00:55;;;;;;;2.60;1.15;;;21.40;43.90;;;;;;4993470;28;20092;-52
2023/03/31 03:03:39;;;;;;;2.85;1.00;;;21.40;43.90;;;;;;4991653;28;20038;-55
2023/03/31 03:06:17;;;;;;;2.72;1.00;;;21.40;43.90;;;;;;4991394;28;20041;-48
2023/03/31 03:09:17;;;;;;;3.05;1.00;;;21.40;44.00;;;;;;4992195;28;20366;-51
2023/03/31 03:11:47;;;;;;;3.72;1.10;;;21.30;43.90;;;;;;4985921;28;20023;-51
2023/03/31 03:14:44;;;;;;;2.53;0.82;;;21.40;44.00;;;;;;4992645;28;20448;-54
2023/03/31 03:17:16;;;;;;;2.53;1.10;;;21.40;44.00;;;;;;4989087;28;20030;-55
2023/03/31 03:19:42;;;;;;;2.13;1.00;;;21.40;44.00;;;;;;4992674;28;20123;-53
2023/03/31 03:22:08;;;;;;;2.08;0.98;;;21.30;43.90;;;;;;4994384;28;20026;-56
2023/03/31 03:24:35;;;;;;;2.10;0.93;;;21.40;44.00;;;;;;4993411;28;20097;-54
2023/03/31 03:27:01;;;;;;;1.77;0.73;;;21.30;43.90;;;;;;4994527;28;20050;-53
2023/03/31 03:29:27;;;;;;;2.22;0.90;;;21.30;43.90;;;;;;4993105;28;20026;-51
2023/03/31 03:31:53;;;;;;;1.92;0.90;;;21.30;43.90;;;;;;4994429;28;20521;-51
2023/03/31 03:34:19;;;;;;;1.90;1.00;;;21.30;43.90;;;;;;4991343;28;20030;-53
2023/03/31 03:36:45;;;;;;;2.70;1.10;;;21.30;43.90;;;;;;4994461;28;20030;-53
2023/03/31 03:39:11;;;;;;;3.88;1.10;;;21.30;44.00;;;;;;4993232;28;20362;-54
2023/03/31 03:41:37;;;;;;;2.03;0.80;;;21.30;44.00;;;;;;4994204;28;20030;-54
2023/03/31 03:44:04;;;;;;;2.90;0.85;;;21.30;44.00;;;;;;4993836;28;20088;-51
2023/03/31 03:46:29;;;;;;;2.05;0.77;;;21.30;44.00;;;;;;4994207;28;20041;-55
2023/03/31 03:48:55;;;;;;;1.95;0.80;;;21.30;44.00;;;;;;4991473;28;20113;-53
2023/03/31 03:51:22;;;;;;;2.80;0.93;;;21.30;44.10;;;;;;4993345;28;20034;-55
2023/03/31 03:53:47;;;;;;;2.28;1.15;;;21.30;44.10;;;;;;4993899;28;20085;-54
2023/03/31 03:56:13;;;;;;;2.40;0.70;;;21.30;44.10;;;;;;4992473;28;20458;-52
2023/03/31 03:58:39;;;;;;;2.05;1.08;;;21.30;44.20;;;;;;4989182;28;20022;-54
2023/03/31 04:01:05;;;;;;;1.58;0.75;;;21.30;44.20;;;;;;4993237;28;20498;-50
2023/03/31 04:03:31;;;;;;;2.78;1.10;;;21.30;44.30;;;;;;4994151;28;20457;-52
2023/03/31 04:05:57;;;;;;;3.17;1.00;;;21.30;44.30;;;;;;4992946;28;20030;-51
2023/03/31 04:08:23;;;;;;;3.85;1.08;;;21.30;44.30;;;;;;4989995;28;20077;-54
2023/03/31 04:10:49;;;;;;;2.10;0.90;;;21.20;44.30;;;;;;4991739;28;20027;-52
2023/03/31 04:13:16;;;;;;;1.95;0.80;;;21.20;44.30;;;;;;4993394;28;20108;-52
2023/03/31 04:15:43;;;;;;;2.42;0.90;;;21.20;44.30;;;;;;4993929;28;20027;-55
2023/03/31 04:18:17;;;;;;;3.45;0.80;;;21.20;44.40;;;;;;4990112;28;20022;-55
2023/03/31 04:20:44;;;;;;;3.20;1.00;;;21.20;44.40;;;;;;4992607;28;20038;-51
2023/03/31 04:23:13;;;;;;;3.00;0.90;;;21.30;44.50;;;;;;4993568;28;20064;-55
2023/03/31 04:25:45;;;;;;;2.47;1.00;;;21.20;44.50;;;;;;4991270;28;20026;-50
2023/03/31 04:28:13;;;;;;;1.90;0.90;;;21.20;44.50;;;;;;4993025;28;20481;-53
2023/03/31 04:30:39;;;;;;;2.30;0.70;;;21.20;44.50;;;;;;4993324;28;20034;-53
2023/03/31 04:33:05;;;;;;;3.15;1.00;;;21.20;44.50;;;;;;4989836;28;20048;-51
2023/03/31 04:35:48;;;;;;;2.20;0.93;;;21.20;44.50;;;;;;4993409;28;20513;-49
2023/03/31 04:38:18;;;;;;;4.32;1.10;;;21.20;44.60;;;;;;4992560;28;20030;-52
2023/03/31 04:40:46;;;;;;;3.20;1.35;;;21.20;44.60;;;;;;4992745;28;20378;-50
2023/03/31 04:43:12;;;;;;;1.88;0.73;;;21.20;44.60;;;;;;4991329;28;20115;-52
2023/03/31 04:45:38;;;;;;;2.95;1.10;;;21.20;44.60;;;;;;4993138;28;20018;-54
2023/03/31 04:48:04;;;;;;;4.63;1.10;;;21.20;44.60;;;;;;4992069;28;20101;-51
2023/03/31 04:50:31;;;;;;;3.03;1.00;;;21.20;44.70;;;;;;4993767;28;20031;-49
2023/03/31 04:52:57;;;;;;;3.72;1.20;;;21.20;44.70;;;;;;4992159;28;20042;-54
2023/03/31 04:55:23;;;;;;;2.30;0.93;;;21.20;44.70;;;;;;4991505;28;20030;-51
2023/03/31 04:57:50;;;;;;;2.05;0.93;;;21.20;44.70;;;;;;4991519;28;20034;-50
2023/03/31 05:00:16;;;;;;;2.50;1.00;;;21.20;44.70;;;;;;4992975;28;20054;-53
2023/03/31 05:02:43;;;;;;;3.15;0.95;;;21.20;44.70;;;;;;4992646;28;20029;-55
2023/03/31 05:05:09;;;;;;;2.22;0.82;;;21.20;44.70;;;;;;4995444;28;20851;-53
2023/03/31 05:07:35;;;;;;;2.72;1.02;;;21.20;44.70;;;;;;4995911;28;20030;-54
2023/03/31 05:10:01;;;;;;;3.13;0.98;;;21.10;44.70;;;;;;4997259;28;20374;-53
2023/03/31 05:12:27;;;;;;;2.00;0.88;;;21.10;44.70;;;;;;4996436;28;20030;-51
2023/03/31 05:14:53;;;;;;;2.70;1.02;;;21.10;44.70;;;;;;4994264;28;20390;-53
2023/03/31 05:17:19;;;;;;;2.47;0.98;;;21.10;44.80;;;;;;4999666;28;20176;-50
2023/03/31 05:19:45;;;;;;;2.67;1.15;;;21.10;44.80;;;;;;4996973;28;20034;-53
2023/03/31 05:22:10;;;;;;;2.53;1.00;;;21.10;44.80;;;;;;4996408;28;20026;-54
2023/03/31 05:24:36;;;;;;;3.90;1.10;;;21.10;44.80;;;;;;4996849;28;20848;-51
2023/03/31 05:27:02;;;;;;;2.28;0.98;;;21.10;44.80;;;;;;4993762;28;20030;-54
2023/03/31 05:29:28;;;;;;;2.50;0.95;;;21.10;45.40;;;;;;4994541;28;20026;-53
2023/03/31 05:31:54;;;;;;;1.80;0.80;;;21.10;44.80;;;;;;4995264;28;20099;-56
2023/03/31 05:34:20;;;;;;;2.45;0.90;;;21.10;44.80;;;;;;4996035;28;20026;-54
2023/03/31 05:36:47;;;;;;;3.03;0.98;;;21.10;44.80;;;;;;4995096;28;20037;-56
2023/03/31 05:39:13;;;;;;;2.83;0.90;;;21.10;44.90;;;;;;4995521;28;20092;-52
2023/03/31 05:41:39;;;;;;;2.40;0.98;;;21.10;44.90;;;;;;4995653;28;20030;-53
2023/03/31 05:44:05;;;;;;;4.07;1.10;;;21.10;44.90;;;;;;4994949;28;20037;-52
2023/03/31 05:46:31;;;;;;;2.10;0.75;;;21.10;44.90;;;;;;4996267;28;20077;-52
2023/03/31 05:48:57;;;;;;;4.28;1.30;;;21.10;44.90;;;;;;4994713;28;20084;-54
2023/03/31 05:51:23;;;;;;;2.90;0.70;;;21.10;44.90;;;;;;4996210;28;20397;-52
2023/03/31 05:53:50;;;;;;;2.97;0.90;;;21.10;44.90;;;;;;4996158;28;20022;-52
2023/03/31 05:56:16;;;;;;;2.35;0.90;;;21.10;44.90;;;;;;4996337;28;20117;-53
2023/03/31 05:58:41;;;;;;;3.25;0.98;;;21.10;44.90;;;;;;4993913;28;20114;-52
2023/03/31 06:01:10;;;;;;;2.55;0.90;;;21.00;44.90;;;;;;4995544;28;20042;-54
2023/03/31 06:03:40;;;;;;;4.03;1.10;;;21.10;44.90;;;;;;4994364;28;20045;-51
2023/03/31 06:06:08;;;;;;;2.42;0.60;;;21.00;44.90;;;;;;4995898;28;20022;-52
2023/03/31 06:08:36;;;;;;;3.38;0.90;;;21.00;44.90;;;;;;4993690;28;20026;-51
2023/03/31 06:11:07;;;;;;;2.80;0.90;;;21.10;44.90;;;;;;4996268;28;20026;-50
2023/03/31 06:13:34;;;;;;;4.97;1.48;;;21.00;44.90;;;;;;4994025;28;20050;-54
2023/03/31 06:16:00;;;;;;;2.47;0.95;;;21.00;44.90;;;;;;4995608;28;20064;-51
2023/03/31 06:18:28;;;;;;;2.10;0.88;;;21.00;44.90;;;;;;4991692;28;20041;-53
2023/03/31 06:20:55;;;;;;;2.72;0.90;;;21.00;44.90;;;;;;4995318;28;20096;-51
2023/03/31 06:23:22;;;;;;;3.03;1.00;;;21.00;45.00;;;;;;4995740;28;20117;-51
2023/03/31 06:25:47;;;;;;;1.80;0.70;;;21.00;45.00;;;;;;4992887;28;20030;-54
2023/03/31 06:28:14;;;;;;;3.03;1.00;;;21.00;45.00;;;;;;4994328;28;20026;-50
2023/03/31 06:30:40;;;;;;;2.88;0.88;;;21.00;45.00;;;;;;4995584;28;20113;-50
2023/03/31 06:33:06;;;;;;;2.80;0.90;;;21.10;45.10;;;;;;4995371;28;20106;-53
2023/03/31 06:35:32;;;;;;;2.53;0.80;;;21.00;45.00;;;;;;4995158;28;20064;-51
2023/03/31 06:37:58;;;;;;;3.58;1.02;;;21.00;45.10;;;;;;4991860;28;20030;-54
2023/03/31 06:40:24;;;;;;;1.77;0.70;;;21.00;45.00;;;;;;4993069;28;20045;-54
2023/03/31 06:42:50;;;;;;;1.83;0.80;;;21.00;45.00;;;;;;4991050;28;20027;-54
2023/03/31 06:45:16;;;;;;;1.88;0.80;;;21.00;45.10;;;;;;4995429;28;20034;-53
2023/03/31 06:47:42;;;;;;;2.63;0.90;;;21.00;45.00;;;;;;4994651;28;20031;-52
2023/03/31 06:50:09;;;;;;;1.25;0.70;;;21.00;45.00;;;;;;4995039;28;20362;-55
2023/03/31 06:52:36;;;;;;;1.25;0.60;;;21.00;45.00;;;;;;4993851;28;20038;-55
2023/03/31 06:55:02;;;;;;;3.75;0.80;;;21.00;45.00;;;;;;4995260;28;20033;-53
2023/03/31 06:57:31;;;;;;;2.30;0.85;;;21.00;44.90;;;;;;4992517;28;20478;-51
2023/03/31 06:59:57;;;;;;;2.80;0.90;;;21.00;44.90;;;;;;4982940;28;20176;-54
2023/03/31 07:02:23;;;;;;;2.30;1.00;;;21.00;44.90;;;;;;4988369;28;20073;-55
2023/03/31 07:04:49;;;;;;;3.90;1.70;;;21.00;44.90;;;;;;4984761;28;20034;-53
2023/03/31 07:07:15;;;;;;;2.90;1.63;;;21.00;44.90;;;;;;4994135;28;20089;-55
2023/03/31 07:09:41;;;;;;;3.40;1.30;;;21.00;45.00;;;;;;4994611;28;20026;-52
2023/03/31 07:12:07;;;;;;;2.70;1.50;;;21.00;44.90;;;;;;4993708;28;20061;-53
2023/03/31 07:14:33;;;;;;;3.13;1.92;;;21.00;44.90;;;;;;4995286;28;20051;-56
2023/03/31 07:16:59;;;;;;;3.00;1.77;;;21.10;45.00;;;;;;4993397;28;20022;-55
2023/03/31 07:19:29;;;;;;;6.20;2.60;;;21.10;45.00;;;;;;4994031;28;20065;-52
2023/03/31 07:21:55;;;;;;;4.60;2.40;;;21.10;45.00;;;;;;4994108;28;20450;-53
2023/03/31 07:24:21;;;;;;;3.95;2.45;;;21.10;45.00;;;;;;4991084;28;20097;-56
2023/03/31 07:26:49;;;;;;;4.63;3.00;;;21.10;45.00;;;;;;4992425;28;20057;-53
2023/03/31 07:29:15;;;;;;;4.13;2.70;;;21.10;45.00;;;;;;4993338;28;20022;-54
2023/03/31 07:31:40;;;;;;;4.55;2.75;;;21.10;45.00;;;;;;4991886;28;20100;-53
2023/03/31 07:34:06;;;;;;;4.90;2.90;;;21.20;45.00;;;;;;4994252;28;20085;-54
2023/03/31 07:36:32;;;;;;;4.47;3.22;;;21.20;45.10;;;;;;4994191;28;20073;-56
2023/03/31 07:38:58;;;;;;;4.65;3.40;;;21.20;45.20;;;;;;4993680;28;20045;-56
2023/03/31 07:41:25;;;;;;;3.88;3.10;;;21.20;45.30;;;;;;4992968;28;20027;-55
2023/03/31 07:43:51;;;;;;;5.10;3.60;;;21.30;45.30;;;;;;4992843;28;20030;-52
2023/03/31 07:46:20;;;;;;;6.22;4.18;;;21.30;45.30;;;;;;4993129;28;20049;-56
2023/03/31 07:48:47;;;;;;;5.45;4.10;;;21.30;45.20;;;;;;4990055;28;20027;-54
2023/03/31 07:51:18;;;;;;;6.03;4.05;;;21.30;45.20;;;;;;4994062;28;20034;-52
2023/03/31 07:53:45;;;;;;;5.60;4.38;;;21.30;45.10;;;;;;4991956;28;20038;-49
2023/03/31 07:56:11;;;;;;;5.55;4.40;;;21.40;45.10;;;;;;4991387;28;20018;-54
2023/03/31 07:58:37;;;;;;;6.35;4.63;;;21.40;45.10;;;;;;4992773;28;20446;-53
2023/03/31 08:01:03;;;;;;;7.03;5.13;;;21.40;45.00;;;;;;4993448;28;20049;-54
2023/03/31 08:03:30;;;;;;;6.38;4.80;;;21.50;45.10;;;;;;4993539;28;20382;-52
2023/03/31 08:05:56;;;;;;;6.15;4.75;;;21.50;45.00;;;;;;4990120;28;20099;-55
2023/03/31 08:08:23;;;;;;;7.40;5.40;;;21.50;45.00;;;;;;4991019;28;20041;-55
2023/03/31 08:10:49;;;;;;;8.63;4.47;;;21.40;44.90;;;;;;4995079;28;20030;-54
2023/03/31 08:13:15;;;;;;;5.53;4.15;;;21.50;44.90;;;;;;4995243;28;20478;-56
2023/03/31 08:15:41;;;;;;;6.82;4.38;;;21.50;44.70;;;;;;4994782;28;20038;-52
2023/03/31 08:18:07;;;;;;;6.32;4.05;;;21.50;44.60;;;;;;4999843;28;20064;-50
2023/03/31 08:20:33;;;;;;;4.85;3.90;;;21.50;44.60;;;;;;4994876;28;20133;-54
2023/03/31 08:22:59;;;;;;;5.32;3.83;;;21.60;44.60;;;;;;4993503;28;20062;-51
2023/03/31 08:25:25;;;;;;;7.72;3.85;;;21.60;44.60;;;;;;4993094;28;20124;-50
2023/03/31 08:27:51;;;;;;;5.43;3.90;;;21.60;44.50;;;;;;4992440;28;20022;-53
2023/03/31 08:30:17;;;;;;;6.43;4.03;;;21.60;44.50;;;;;;4993304;28;20450;-54
2023/03/31 08:32:44;;;;;;;5.43;3.95;;;21.70;44.50;;;;;;4994382;28;20039;-54
2023/03/31 08:35:10;;;;;;;5.38;4.45;;;21.70;44.50;;;;;;4993401;28;20034;-56
2023/03/31 08:37:37;;;;;;;5.22;4.03;;;21.70;44.50;;;;;;4993069;28;20022;-57
2023/03/31 08:40:04;;;;;;;6.40;4.60;;;21.70;44.50;;;;;;4996710;28;20407;-52
2023/03/31 08:42:46;;;;;;;6.90;4.90;;;21.70;44.40;;;;;;4997097;28;20069;-54
2023/03/31 08:45:23;;;;;;;5.60;4.55;;;21.80;44.50;;;;;;4996653;28;20077;-53
2023/03/31 08:47:54;;;;;;;7.78;4.82;;;21.80;44.50;;;;;;4996061;28;20092;-52
2023/03/31 08:50:24;;;;;;;6.68;5.10;;;21.80;44.50;;;;;;4989013;28;20350;-53
2023/03/31 08:52:53;;;;;;;8.10;5.55;;;21.80;44.50;;;;;;4997580;28;20034;-56
2023/03/31 08:55:31;;;;;;;7.68;5.85;;;21.80;44.50;;;;;;4997618;28;20160;-52
2023/03/31 08:58:39;;;;;;;9.95;6.47;;;21.80;44.50;;;;;;4996086;28;20117;-52
2023/03/31 09:01:49;;;;;;;7.72;6.30;;;21.80;44.50;;;;;;4996783;28;20070;-52
2023/03/31 09:04:17;;;;;;;8.93;6.68;;;21.90;44.60;;;;;;4936694;29;20059;-52
2023/03/31 09:07:08;;;;;;;9.32;7.07;;;21.80;44.60;;;;;;4935012;29;20031;-54
2023/03/31 09:09:59;;;;;;;9.38;7.30;;;21.80;44.60;;;;;;4976543;28;20070;-54
2023/03/31 09:12:36;;;;;;;9.88;7.22;;;21.90;44.60;;;;;;4995711;28;20026;-53
2023/03/31 09:15:11;;;;;;;8.48;7.53;;;21.90;44.60;;;;;;4995319;28;20031;-56
2023/03/31 09:17:39;;;;;;;;;;;21.90;44.60;;;;;;4993929;28;20041;-54
2023/03/31 09:20:15;;;;;;;12.80;8.00;;;21.90;44.70;;;;;;4994109;28;19969;-57
2023/03/31 09:23:11;;;;;;;10.60;8.02;;;21.90;44.90;;;;;;4996010;28;20027;-54
2023/03/31 09:25:40;;;;;;;13.65;9.43;;;21.90;45.20;;;;;;4988798;28;20108;-53
2023/03/31 09:28:17;;;;;;;11.73;10.02;;;21.90;45.20;;;;;;4996840;28;20022;-54
2023/03/31 09:30:48;;;;;;;13.25;10.88;;;21.90;45.30;;;;;;4995245;28;20027;-51
2023/03/31 09:33:30;;;;;;;13.05;11.20;;;22.00;45.30;;;;;;4994351;28;20034;-56
2023/03/31 09:36:00;;;;;;;14.30;11.95;;;22.00;45.40;;;;;;4994879;28;20037;-56
2023/03/31 09:38:28;;;;;;;14.88;11.93;;;22.00;45.40;;;;;;4996445;28;20035;-54
2023/03/31 09:41:00;;;;;;;14.82;13.05;;;22.00;45.40;;;;;;4994860;28;20074;-56
2023/03/31 09:43:29;;;;;;;14.70;11.95;;;22.00;45.60;;;;;;4993237;28;20488;-50
2023/03/31 09:45:56;;;;;;;15.27;12.68;;;22.00;45.60;;;;;;4996001;28;20058;-59
2023/03/31 09:48:33;;;;;;;15.10;13.50;;;22.00;45.70;;;;;;4996264;28;20080;-58
2023/03/31 09:51:14;;;;;;;15.65;12.85;;;22.00;45.70;;;;;;4993570;28;20032;-59
2023/03/31 09:53:46;;;;;;;16.02;13.77;;;22.00;45.80;;;;;;4995980;28;20058;-55
2023/03/31 09:56:13;;;;;;;17.83;13.80;;;22.00;45.80;;;;;;4993428;28;20331;-58
2023/03/31 09:58:47;;;;;;;16.48;13.60;;;22.00;45.80;;;;;;4995770;28;20038;-58
2023/03/31 10:01:14;;;;;;;14.68;13.15;;;22.00;45.80;;;;;;4991468;28;20073;-59
2023/03/31 10:03:52;;;;;;;16.92;13.98;;;22.00;45.90;;;;;;4995916;28;20030;-55
2023/03/31 10:06:19;;;;;;;15.73;13.07;;;22.00;45.80;;;;;;4993545;28;20038;-58
2023/03/31 10:08:52;;;;;;;16.77;13.00;;;22.00;45.80;;;;;;4994554;28;20045;-58
2023/03/31 10:11:19;;;;;;;15.43;13.60;;;22.00;45.70;;;;;;4994641;28;20034;-55
2023/03/31 10:13:47;;;;;;;18.08;13.55;;;22.00;45.70;;;;;;4995236;28;20445;-58
2023/03/31 10:16:29;;;;;;;18.02;14.43;;;22.00;45.70;;;;;;4995074;28;20073;-56
2023/03/31 10:19:10;;;;;;;17.50;13.95;;;22.00;45.70;;;;;;4994450;28;20340;-54
2023/03/31 10:21:37;;;;;;;17.30;13.75;;;22.00;45.70;;;;;;4995529;28;20026;-56
2023/03/31 10:24:10;;;;;;;17.55;13.95;;;22.00;45.90;;;;;;4992567;28;20034;-53
2023/03/31 10:26:36;;;;;;;17.63;15.07;;;22.00;45.90;;;;;;4994491;28;20466;-54
2023/03/31 10:29:11;;;;;;;17.05;15.05;;;22.00;45.90;;;;;;4995309;28;20038;-55
2023/03/31 10:31:37;;;;;;;18.10;14.95;;;22.00;45.90;;;;;;4993283;28;20105;-56
2023/03/31 10:34:06;;;;;;;19.35;14.85;;;22.10;45.80;;;;;;4994625;28;20018;-55
2023/03/31 10:36:33;;;;;;;19.30;15.73;;;22.00;45.70;;;;;;4993228;28;20473;-52
2023/03/31 10:39:05;;;;;;;19.88;16.35;;;22.00;45.60;;;;;;4995198;28;20030;-53
2023/03/31 10:41:32;;;;;;;20.50;16.67;;;22.10;45.70;;;;;;4995553;28;20038;-50
2023/03/31 10:44:01;;;;;;;20.73;15.90;;;22.00;45.60;;;;;;4991698;28;20425;-50
2023/03/31 10:46:51;;;;;;;18.42;15.57;;;22.10;45.70;;;;;;4995117;28;20022;-54
2023/03/31 10:49:20;;;;;;;20.67;16.30;;;22.00;45.60;;;;;;4993417;28;20034;-54
2023/03/31 10:51:57;;;;;;;18.45;15.93;;;22.10;45.60;;;;;;4993862;28;20034;-54
2023/03/31 10:54:24;;;;;;;18.48;14.95;;;22.10;45.50;;;;;;4989533;28;20030;-53
2023/03/31 10:57:04;;;;;;;17.20;14.18;;;22.10;45.30;;;;;;4987332;28;20093;-50
2023/03/31 10:59:58;;;;;;;18.35;14.57;;;22.10;45.20;;;;;;4989852;28;20069;-54
2023/03/31 11:02:53;;;;;;;18.75;14.10;;;22.10;45.00;;;;;;4994509;28;20037;-53
2023/03/31 11:05:27;;;;;;;17.83;12.82;;;22.10;44.90;;;;;;4990397;28;20027;-54
2023/03/31 11:07:56;;;;;;;16.85;13.32;;;22.10;44.80;;;;;;4991329;28;20414;-53
2023/03/31 11:10:49;;;;;;;16.95;13.02;;;22.10;44.70;;;;;;4988507;28;20062;-55
2023/03/31 11:13:24;;;;;;;15.23;13.45;;;22.20;44.60;;;;;;4994081;28;20121;-56
2023/03/31 11:16:10;;;;;;;16.00;13.15;;;22.20;44.50;;;;;;4986170;28;20085;-56
2023/03/31 11:18:44;;;;;;;15.60;12.02;;;22.20;44.40;;;;;;4992255;28;20030;-54
2023/03/31 11:21:19;;;;;;;16.50;12.40;;;22.20;44.30;;;;;;4986686;28;20203;-56
2023/03/31 11:24:03;;;;;;;15.70;13.13;;;22.10;44.20;;;;;;4989622;28;20035;-50
2023/03/31 11:26:46;;;;;;;15.50;12.90;;;22.10;44.10;;;;;;4989536;28;20041;-52
2023/03/31 11:29:25;;;;;;;15.65;12.95;;;22.10;44.00;;;;;;4987245;28;20038;-49
2023/03/31 11:32:11;;;;;;;15.55;12.57;;;22.10;43.90;;;;;;4987624;28;20041;-52
2023/03/31 11:35:05;;;;;;;15.02;12.98;;;22.20;44.00;;;;;;4989440;28;20034;-56
2023/03/31 11:37:55;;;;;;;16.48;14.18;;;22.10;44.00;;;;;;4986334;28;20031;-52
2023/03/31 11:40:43;;;;;;;17.00;14.48;;;22.20;44.10;;;;;;4994169;28;20077;-52
2023/03/31 11:43:20;;;;;;;19.05;14.68;;;22.20;44.10;;;;;;4996350;28;20034;-54
2023/03/31 11:45:59;;;;;;;18.08;14.10;;;22.20;44.10;;;;;;4995972;28;20100;-53
2023/03/31 11:48:43;;;;;;;19.55;14.30;;;22.20;44.10;;;;;;4995120;28;20049;-49
2023/03/31 11:51:15;;;;;;;18.33;13.98;;;22.20;44.10;;;;;;4996064;28;20113;-52
2023/03/31 11:53:44;;;;;;;16.23;13.25;;;22.20;44.00;;;;;;4995567;28;20045;-54
2023/03/31 11:56:11;;;;;;;17.23;13.52;;;22.20;44.00;;;;;;4995283;28;20345;-56
2023/03/31 11:58:46;;;;;;;15.13;12.10;;;22.20;43.80;;;;;;4985031;28;20038;-55
2023/03/31 12:01:35;;;;;;;15.35;13.13;;;22.30;44.40;;;;;;4976397;28;20125;-50
2023/03/31 12:04:14;;;;;;;15.15;12.82;;;22.30;43.70;;;;;;4979180;28;20030;-50
2023/03/31 12:06:41;;;;;;;15.90;13.02;;;22.30;43.60;;;;;;4976680;28;20030;-53
2023/03/31 12:09:35;;;;;;;15.77;12.48;;;22.30;43.60;;;;;;4995241;28;20087;-50
2023/03/31 12:12:17;;;;;;;16.00;12.88;;;22.30;43.50;;;;;;4995021;28;20435;-53
2023/03/31 12:14:54;;;;;;;14.27;12.05;;;22.20;43.30;;;;;;4992648;28;20113;-52
2023/03/31 12:17:26;;;;;;;14.05;11.38;;;22.20;43.30;;;;;;4987596;28;20389;-53
2023/03/31 12:19:59;;;;;;;16.23;12.00;;;22.30;43.30;;;;;;4994421;28;20042;-49
2023/03/31 12:22:58;;;;;;;15.43;12.60;;;22.20;43.10;;;;;;4995638;28;20038;-52
2023/03/31 12:25:31;;;;;;;15.98;12.48;;;22.30;43.20;;;;;;4986826;28;20351;-53
2023/03/31 12:27:58;;;;;;;14.00;11.95;;;22.30;43.10;;;;;;4995480;28;20045;-55
2023/03/31 12:30:33;;;;;;;18.67;12.93;;;22.20;43.00;;;;;;4995247;28;20030;-51
2023/03/31 12:33:06;;;;;;;15.23;11.77;;;22.30;43.00;;;;;;4995224;28;20042;-52
2023/03/31 12:35:50;;;;;;;14.00;12.23;;;22.30;43.00;;;;;;4994068;28;20081;-50
2023/03/31 12:38:25;;;;;;;14.52;11.63;;;22.30;43.00;;;;;;4995301;28;20045;-52
2023/03/31 12:41:13;;;;;;;13.48;11.38;;;22.30;42.90;;;;;;4995094;28;20038;-53
2023/03/31 12:43:54;;;;;;;13.25;11.02;;;22.30;42.90;;;;;;4995431;28;20098;-53
2023/03/31 12:46:28;;;;;;;16.38;12.25;;;22.20;42.80;;;;;;4995344;28;20046;-52
2023/03/31 12:48:56;;;;;;;14.68;11.57;;;22.20;42.80;;;;;;4987043;28;20040;-55
2023/03/31 12:51:44;;;;;;;16.67;11.48;;;22.20;42.80;;;;;;4993661;28;20045;-55
2023/03/31 12:54:24;;;;;;;14.45;11.52;;;22.20;42.80;;;;;;4988425;28;20089;-55
2023/03/31 12:57:02;;;;;;;14.50;12.00;;;22.30;42.90;;;;;;4991114;28;20069;-53
2023/03/31 12:59:37;;;;;;;15.02;11.95;;;22.20;42.90;;;;;;4987426;28;20039;-57
2023/03/31 13:02:09;;;;;;;13.70;12.30;;;22.30;42.90;;;;;;4993317;28;20022;-54
2023/03/31 13:04:36;;;;;;;16.08;12.68;;;22.30;42.90;;;;;;4991387;28;20030;-52